Route Details

Aircraft Information
Group: Boeing 767-300BDSF
Types: B763
Route Data
Distance: 1316nm
Duration: 3h 29m
Origin METAR: SKBO 171100Z VRB02KT 9999 FEW023 09/08 Q1028 NOSIG RMK A3036
Dest. METAR: KMIA 171053Z 21004KT 10SM FEW025 26/23 A2995 RMK AO2 SLP143 T02610233 $
Freight Data
(for Aug 18, 2022)
Load Factor:
78%
Manifested Cargo: 94,105lbs
Financial History
Total Freight: 478,586lbs
Average Load: 0lbs/flt
Fuel Used: 180,387lbs
Avg. Fuel Used: 0lbs/flt
Fuel Expense: $144,310
Avg. Fuel Expense: $0
Avg. Fuel Cost: $0/lbs
Total Gross Income: $1,005,030
Pilot Pay: $775
Total Expenses: $108,803
Total Revenue: $748,836
Average Revenue: $0

Capitol Logistics 791




SKBO
El Nuevo Dorado International Airport
Bogota, CO
KMIA
Miami International Airport
Miami, US

Activity Log

Date Flight Route Aircraft Duration
02/07/2021 CPX626 UCA UA301 URSUS FLIPR5 B763 3h 41m
01/31/2021 CPX626 UCA UA301 URSUS FLIPR5 B763 3h 39m
01/30/2021 CPX626 UCA UA301 URSUS FLIPR5 B763 3h 39m
04/05/2020 CPX626 UCA UA301 URSUS FLIPR5 B763 3h 37m
01/05/2020 CPX626 UCA UA301 URSUS FLIPR5 B763 3h 33m